메인 페이지
METAR-TAF:

METAR-TAF

공항 :

Otis Air National Guard Base

Falmouth, 매사추세츠, 미국

위도: 41-39N, 경도: 070-31W, 고도: 40m

현재 날씨관측

예보는 20분 전, 00:56시(UTC)에 발표되었습니다.
서북서12kt, 순간 최대 풍속 20kt
온도 -3°C
습도 30%
기압 1014 hPa
시정: 16.1km
맑음

METAR: KFMH 250056Z 30012G20KT 10SM CLR M03/M18 A2994

시각: 20:16 (01:16 UTC)

예보

예보는 1 시간 56분 전, 23:20시(UTC)에 발표되었습니다.
예보 대상 시간: 25일 00시부터 25일 24시까지 (UTC)
서북서14kt, 순간 최대 풍속 27kt
시정: 10km
맑음
25일 0700시부터 (UTC)
북서10kt, 순간 최대 풍속 22kt
시정: 10km
맑음
25일 1100시부터 (UTC)
북서8kt
시정: 10km
맑음

TAF: KFMH 242320Z 2500/2524 30014G27KT P6SM SKC FM250700 31010G22KT P6SM SKC FM251100 31008KT P6SM SKC

4,000개 이상의 공항 관측 자료 및 예보 (METAR 및 TAF 보고).

지도상에서 검색 가능한 기상관측소가 노란 점과 빨간 점으로 표시되어 있습니다.

기상관측소 명을 보려면 표시 위로 마우스를 이동하세요.

날씨 관측과 예보를 보려면 클릭하세요.

지도 변경 : 확대하려면 엑스 표시가 있는 녹색 버튼, 축소하려면 빼기 표시가 있는 녹색 버튼, 다음 페이지의 지도를 보려면 녹색 화살표를 클릭하세요.


METAR-TAF: